aviador You're here:

KHSE Decoded Metar

HATTERAS/MITCHEL in NC, USA
Report Time2017-08-16 14:51:00
UTC Time2017-08-16 15:07:36
Flight Rules vfr VFR
WindVRB at 06 kt
Visibility9999 m
Phenomena:N/A
Clouds:Few 013 Hf
Scattered 032 Hf
Broken 060 Hf
Expected CloudBase > 1,200 ft AGL from Temp-Dew spread
Ceiling6,000 ft
Temp29°C (ISA +14)
Dew Point26°C (84% RH)
Heat Index35.6°C
QNH1016 hPa
Density Alt1,959 ft
Elevation10 ft
Report Wrong Elevation
Raw Report
METAR KHSE 161451Z AUTO VRB06KT 10SM FEW013 SCT032 BKN060 29/26 A2999
RMK AO2 SLP155 T02890256 51013 TSNO=

Extra information for KHSE:More info

Metar Taf Metar & Taf Last 4 Metars F.Rules Stats Wind Profile Meteogram Temp Stats Airport Information Weather charts Add Link Nearby VenuesMetar ALERT Operation Metar Decoded Social comments

AIRNAV info for KHSE